Tiempo atmosférico en la estación meteorológica de Hoyos , Cáceres (569 m.)



Fecha
DESCASC
Temp. máxima en grados centígrados (hora)
DESCASC
Temp. mínima en grados centígrados (hora)
DESCASC
Temp. media en grados centígrados
DESCASC
Racha de viento máxima en m/sg (hora)
DESCASC
Velocidad máxima media en intervalos de 10 minutos(hora)
DESCASC
Precipitaciones diarias en mm
DESCASC
Precipitaciones de 00:00 a 06:00 en mm
DESCASC
Precipitaciones de 06:00 a 12:00 en mm
DESCASC
Precipitaciones de 12:00 a 18:00 en mm
DESCASC
Precipitaciones de 18:00 a 24:00 en mm
DESCASC
18-08-2019 33.1 (16:10) 19.4 (08:20) 26.2 12.78 (05:20) 6.11 (01:10) 0 0 0 0 0
17-08-2019 36.6 (18:30) 22.9 (07:50) 29.7 12.5 (04:30) 6.67 (04:30) 0 0 0 0 0
16-08-2019 37.1 (18:10) 22.9 (08:00) 30 12.78 (01:30) 7.22 (03:50) 0 0 0 0 0
15-08-2019 36.7 (18:00) 22.8 (00:00) 29.8 15 (05:30) 8.06 (00:40) 0 0 0 0 0
14-08-2019 35.3 (18:20) 21.7 (00:00) 28.5 11.94 (23:20) 7.5 (23:20) 0 0 0 0 0
13-08-2019 31.7 (17:30) 16.7 (00:00) 24.2 11.39 (02:30) 6.94 (02:30) 0 0 0 0 0
12-08-2019 27.3 (17:30) 14.2 (00:00) 20.7 15.56 (07:20) 8.89 (07:20) 0 0 0 0 0
11-08-2019 26.1 (16:50) 15.8 (00:00) 21 13.33 (23:59) 6.94 (23:59) 0 0 0 0 0
10-08-2019 29.8 (17:50) 15.4 (00:00) 22.6 10.83 (09:10) 5.83 (05:40) 0 0 0 0 0
09-08-2019 22.9 (00:00) 15.8 (00:00) 19.3 8.33 (10:40) 4.44 (15:40) 6 0 2.8 3.2 0
08-08-2019 29.8 (18:20) 19.3 (00:00) 24.5 10 (19:10) 5.83 (18:50) 0 0 0 0 0
07-08-2019 26.3 (18:20) 20.1 (00:00) 23.2 8.61 (00:30) 3.89 (00:30) 0 0 0 0 0
06-08-2019 33.8 (17:20) 21.1 (00:00) 27.4 9.17 (01:20) 5.28 (06:50) 0 0 0 0 0
05-08-2019 33.7 (17:20) 19.9 (00:00) 26.8 9.17 (10:00) 5 (04:10) 0 0 0 0 0
04-08-2019 34.6 (18:30) 22.3 (00:00) 28.4 11.67 (03:50) 6.39 (03:40) 0 0 0 0 0
03-08-2019 34.9 (17:40) 21.9 (00:00) 28.4 11.11 (01:50) 6.11 (01:00) 0 0 0 0 0
02-08-2019 34.4 (17:40) 21.8 (00:00) 28.1 10 (05:30) 5.83 (07:10) 0 0 0 0 0
01-08-2019 34.9 (17:50) 21.8 (00:00) 28.4 10.56 (00:40) 6.11 (06:10) 0 0 0 0 0
31-07-2019 32.1 (18:40) 18.5 (00:00) 25.3 14.72 (23:50) 8.61 (03:20) 0 0 0 0 0
30-07-2019 29.1 (17:10) 14.3 (00:00) 21.7 18.89 (06:00) 11.39 (05:50) 0 0 0 0 0
29-07-2019 29.1 (16:00) 17.5 (00:00) 23.3 13.89 (23:00) 8.33 (23:00) 0 0 0 0 0
28-07-2019 31.7 (17:50) 17 (00:00) 24.4 11.94 (02:50) 6.94 (00:40) 0 0 0 0 0
27-07-2019 28.5 (18:40) 14.8 (00:00) 21.7 10.28 (23:00) 6.67 (23:20) 0 0 0 0 0
26-07-2019 28.5 (15:30) 16.1 (00:00) 22.3 14.72 (07:20) 8.33 (07:50) 0 0 0 0 0
25-07-2019 31.9 (17:10) 17.5 (00:00) 24.7 10 (13:40) 6.11 (21:30) 0 0 0 0 0
24-07-2019 35.3 (18:40) 20.3 (00:00) 27.8 11.11 (23:30) 6.94 (22:40) 0 0 0 0 0
23-07-2019 34.9 (17:30) 21.5 (00:00) 28.2 11.11 (22:50) 6.67 (22:50) 2 1.8 0.2 0 0
22-07-2019 37.6 (17:40) 23.1 (00:00) 30.3 8.89 (01:00) 5 (01:30) 1.8 0 0 0 1.8
21-07-2019 37.7 (18:50) 23.6 (00:00) 30.7 13.33 (01:20) 7.78 (01:10) 0 0 0 0 0

Gráficas

Temp. máximas Temp. mínimas Temp. medias Precipitaciones Rachas de viento máximas Velocidades máximas media en intervalos de 10 minutos

Datos horarios

Fecha y hora oficial Temperatura (ºC) Velocidad del viento (km/h) Dirección del viento Racha (km/h) Dirección de racha Precipitación (mm) Presión (hPa) Tendencia (hPa) Humedad (%)
2019-08-19 23:00:00 24.1 15 Norte 28 Norte 0 -- -- 41
2019-08-19 22:00:00 24.5 13 Norte 27 Norte 0 -- -- 39
2019-08-19 21:00:00 25.5 9 Norte 18 Norte 0 -- -- 40
2019-08-19 20:00:00 27 8 Norte 17 Noroeste 0 -- -- 36
2019-08-19 19:00:00 27.2 9 Norte 23 Norte 0 -- -- 34
2019-08-19 18:00:00 28.6 13 Norte 24 Norte 0 -- -- 33
2019-08-19 17:00:00 28.2 8 Este 15 Este 0 -- -- 35
2019-08-19 16:00:00 29.6 5 Oeste 23 Sudoeste 0 -- -- 29
2019-08-19 15:00:00 29.1 9 Sudoeste 19 Oeste 0 -- -- 32
2019-08-19 14:00:00 27.8 6 Sudeste 19 Sudoeste 0 -- -- 39
2019-08-19 13:00:00 26.6 7 Nordeste 26 Norte 0 -- -- 45
2019-08-19 12:00:00 24.2 12 Norte 27 Norte 0 -- -- 51
2019-08-19 11:00:00 22.3 16 Norte 35 Noroeste 0 -- -- 54
2019-08-19 10:00:00 20.1 21 Norte 35 Noroeste 0 -- -- 60
2019-08-19 09:00:00 19.1 19 Norte 37 Norte 0 -- -- 65
2019-08-19 08:00:00 18.4 22 Norte 44 Norte 0 -- -- 66
2019-08-19 07:00:00 18.4 24 Norte 41 Norte 0 -- -- 66
2019-08-19 06:00:00 18.9 20 Norte 38 Norte 0 -- -- 67
2019-08-19 05:00:00 19.4 23 Norte 42 Norte 0 -- -- 66
2019-08-19 04:00:00 19.7 23 Norte 40 Norte 0 -- -- 67
2019-08-19 03:00:00 20.1 22 Norte 41 Norte 0 -- -- 65
2019-08-19 02:00:00 21.5 24 Norte 44 Norte 0 -- -- 61
2019-08-19 01:00:00 21.3 27 Norte 43 Norte 0 -- -- 67
2019-08-19 00:00:00 23.6 14 Norte 31 Noroeste 0 -- -- 54
2019-08-18 23:00:00 23.4 10 Norte 24 Norte 0 -- -- 52
2019-08-18 22:00:00 24.9 14 Noroeste 24 Noroeste 0 -- -- 51
2019-08-18 21:00:00 26.5 12 Norte 21 Norte 0 -- -- 50
2019-08-18 20:00:00 29.3 9 Noroeste 26 Sudoeste 0 -- -- 44
2019-08-18 19:00:00 30.4 12 Oeste 30 Sudoeste 0 -- -- 38
2019-08-18 18:00:00 32.4 13 Oeste 28 Sudoeste 0 -- -- 32
2019-08-18 17:00:00 32.9 8 Sudoeste 26 Noroeste 0 -- -- 29
2019-08-18 16:00:00 32.1 10 Sur 27 Sudoeste 0 -- -- 28
2019-08-18 15:00:00 31.7 8 Sudoeste 21 Sudoeste 0 -- -- 28
2019-08-18 14:00:00 29.7 10 Sur 17 Sur 0 -- -- 35
2019-08-18 13:00:00 27.8 8 Norte 17 Nordeste 0 -- -- 41
2019-08-18 12:00:00 27.2 5 Sudeste 9 Este 0 -- -- 42
2019-08-18 11:00:00 23.7 3 Nordeste 19 Nordeste 0 -- -- 52
2019-08-18 10:00:00 22.7 10 Norte 23 Norte 0 -- -- 53
2019-08-18 09:00:00 21.6 9 Norte 23 Nordeste 0 -- -- 52
2019-08-18 08:00:00 20.2 6 Norte 37 Norte 0 -- -- 54
2019-08-18 07:00:00 21.4 17 Norte 34 Norte 0 -- -- 49
2019-08-18 06:00:00 22.3 20 Norte 46 Norte 0 -- -- 45
2019-08-18 05:00:00 22.6 19 Norte 44 Norte 0 -- -- 42
2019-08-18 04:00:00 21.4 18 Norte 36 Norte 0 -- -- 52
2019-08-18 03:00:00 21.9 16 Norte 40 Norte 0 -- -- 59
2019-08-18 02:00:00 23.9 20 Norte 39 Nordeste 0 -- -- 56
2019-08-18 01:00:00 24.7 21 Norte 36 Norte 0 -- -- 54
2019-08-18 00:00:00 24.7 14 Nordeste 22 Norte 0 -- -- 50
2019-08-17 23:00:00 26.9 5 Noroeste 20 Oeste 0 -- -- 37
2019-08-17 22:00:00 27 11 Oeste 18 Oeste 0 -- -- 29
2019-08-17 21:00:00 29.1 5 Noroeste 9 Oeste 0 -- -- 26
2019-08-17 20:00:00 34.1 6 Sudoeste 17 Sudoeste 0 -- -- 18
2019-08-17 19:00:00 36.3 12 Oeste 23 Noroeste 0 -- -- 18
2019-08-17 18:00:00 36.4 7 Oeste 27 Sur 0 -- -- 20
2019-08-17 17:00:00 35.7 9 Sudoeste 27 Sur 0 -- -- 22
2019-08-17 16:00:00 35 8 Sur 24 Sur 0 -- -- 25
2019-08-17 15:00:00 33.9 9 Sur 24 Sur 0 -- -- 25
2019-08-17 14:00:00 33.3 13 Sudeste 24 Sudeste 0 -- -- 28
2019-08-17 13:00:00 32.5 8 Sur 17 Sudeste 0 -- -- 28
2019-08-17 12:00:00 30.6 9 Nordeste 20 Norte 0 -- -- 30
2019-08-17 11:00:00 28.5 10 Norte 25 Norte 0 -- -- 38
2019-08-17 10:00:00 26.6 9 Norte 27 Norte 0 -- -- 42
2019-08-17 09:00:00 25.2 9 Norte 21 Norte 0 -- -- 39
2019-08-17 08:00:00 22.9 9 Norte 26 Norte 0 -- -- 37
2019-08-17 07:00:00 23.5 16 Norte 35 Norte 0 -- -- 39
2019-08-17 06:00:00 23.8 20 Norte 43 Norte 0 -- -- 41
2019-08-17 05:00:00 23.6 24 Norte 45 Norte 0 -- -- 45
2019-08-17 04:00:00 24.4 21 Norte 43 Norte 0 -- -- 41
2019-08-17 03:00:00 26.1 22 Norte 39 Norte 0 -- -- 34
2019-08-17 02:00:00 27 23 Norte 42 Norte 0 -- -- 32
2019-08-17 01:00:00 27 14 Norte 35 Noroeste 0 -- -- 32
2019-08-17 00:00:00 28.5 16 Norte 37 Norte 0 -- -- 34
2019-08-16 23:00:00 29.3 17 Norte 37 Noroeste 0 -- -- 34
2019-08-16 22:00:00 29.4 15 Norte 29 Norte 0 -- -- 37
2019-08-16 21:00:00 30.9 15 Noroeste 27 Noroeste 0 -- -- 32
2019-08-16 20:00:00 33.9 8 Noroeste 24 Noroeste 0 -- -- 25
2019-08-16 19:00:00 36.4 9 Norte 24 Noroeste 0 -- -- 21
2019-08-16 18:00:00 36.8 12 Oeste 25 Oeste 0 -- -- 24
2019-08-16 17:00:00 36.3 6 Oeste 33 Sudoeste 0 -- -- 26
2019-08-16 16:00:00 35.5 12 Sudoeste 26 Sur 0 -- -- 26
2019-08-16 15:00:00 34.2 11 Sur 26 Sudeste 0 -- -- 28
2019-08-16 14:00:00 33.3 6 Sudoeste 22 Sudoeste 0 -- -- 31
2019-08-16 13:00:00 31.9 4 Sur 18 Norte 0 -- -- 37
2019-08-16 12:00:00 30.3 9 Nordeste 22 Norte 0 -- -- 41
2019-08-16 11:00:00 27.6 14 Norte 28 Norte 0 -- -- 47
2019-08-16 10:00:00 26.4 15 Norte 27 Norte 0 -- -- 48
2019-08-16 09:00:00 24.8 13 Norte 36 Norte 0 -- -- 51
2019-08-16 08:00:00 22.9 16 Norte 39 Norte 0 -- -- 57
2019-08-16 07:00:00 23.6 24 Norte 40 Norte 0 -- -- 55
2019-08-16 06:00:00 24.3 21 Norte 41 Norte 0 -- -- 52
2019-08-16 05:00:00 24.8 22 Norte 41 Norte 0 -- -- 50
2019-08-16 04:00:00 25 26 Norte 44 Norte 0 -- -- 50
2019-08-16 03:00:00 25.7 19 Norte 39 Norte 0 -- -- 49
2019-08-16 02:00:00 26 21 Norte 46 Norte 0 -- -- 50
2019-08-16 01:00:00 26.8 22 Noroeste 43 Noroeste 0 -- -- 49
2019-08-16 00:00:00 27.2 20 Noroeste 35 Noroeste 0 -- -- 46
2019-08-15 23:00:00 28.3 24 Noroeste 39 Noroeste 0 -- -- 43
2019-08-15 22:00:00 29.3 24 Noroeste 39 Noroeste 0 -- -- 41
2019-08-15 21:00:00 30.4 10 Noroeste 22 Noroeste 0 -- -- 32
2019-08-15 20:00:00 33.4 13 Noroeste 22 Noroeste 0 -- -- 26
2019-08-15 19:00:00 35.9 9 Norte 24 Norte 0 -- -- 22
2019-08-15 18:00:00 36.7 12 Noroeste 25 Noroeste 0 -- -- 21
2019-08-15 17:00:00 36.1 11 Nordeste 20 Nordeste 0 -- -- 21
2019-08-15 16:00:00 35.3 8 Norte 25 Norte 0 -- -- 23
2019-08-15 15:00:00 34.3 11 Norte 28 Norte 0 -- -- 25
2019-08-15 14:00:00 33.6 12 Norte 25 Nordeste 0 -- -- 27
2019-08-15 13:00:00 31.5 13 Norte 26 Norte 0 -- -- 31
2019-08-15 12:00:00 29.6 15 Norte 26 Norte 0 -- -- 39
2019-08-15 11:00:00 27.2 14 Norte 32 Norte 0 -- -- 46
2019-08-15 10:00:00 24.2 16 Norte 36 Norte 0 -- -- 53
2019-08-15 09:00:00 23.9 19 Norte 44 Norte 0 -- -- 45
2019-08-15 08:00:00 23.3 24 Norte 46 Norte 0 -- -- 44
2019-08-15 07:00:00 23.3 24 Norte 48 Norte 0 -- -- 44
2019-08-15 06:00:00 24.1 26 Norte 54 Norte 0 -- -- 42
2019-08-15 05:00:00 25.3 22 Norte 48 Norte 0 -- -- 42
2019-08-15 04:00:00 25.5 23 Norte 47 Norte 0 -- -- 47
2019-08-15 03:00:00 25.3 22 Norte 42 Norte 0 -- -- 57
2019-08-15 02:00:00 25.4 28 Norte 50 Norte 0 -- -- 58
2019-08-15 01:00:00 25.9 27 Norte 49 Norte 0 -- -- 55
2019-08-15 00:00:00 26.6 22 Noroeste 43 Noroeste 0 -- -- 52
2019-08-14 23:00:00 27.4 25 Noroeste 42 Noroeste 0 -- -- 47
2019-08-14 22:00:00 28.3 17 Noroeste 35 Noroeste 0 -- -- 43
2019-08-14 21:00:00 29.3 13 Noroeste 18 Norte 0 -- -- 35
2019-08-14 20:00:00 32.5 9 Noroeste 15 Norte 0 -- -- 29
2019-08-14 19:00:00 34.6 11 Noroeste 21 Norte 0 -- -- 25
2019-08-14 18:00:00 35.1 7 Norte 22 Noroeste 0 -- -- 23
2019-08-14 17:00:00 34.9 8 Norte 29 Noroeste 0 -- -- 22
2019-08-14 16:00:00 34 8 Noroeste 27 Noroeste 0 -- -- 23
2019-08-14 15:00:00 32.8 6 Norte 19 Este 0 -- -- 24
2019-08-14 14:00:00 31.7 7 Nordeste 20 Norte 0 -- -- 26
2019-08-14 13:00:00 30.7 7 Norte 23 Norte 0 -- -- 26
2019-08-14 12:00:00 29.1 10 Norte 20 Norte 0 -- -- 29
2019-08-14 11:00:00 27.2 9 Norte 21 Norte 0 -- -- 33
2019-08-14 10:00:00 25.7 8 Norte 19 Norte 0 -- -- 31
2019-08-14 09:00:00 23.3 11 Norte 21 Norte 0 -- -- 32
2019-08-14 08:00:00 21.7 12 Norte 24 Norte 0 -- -- 32
2019-08-14 07:00:00 21.8 12 Norte 27 Norte 0 -- -- 32
2019-08-14 06:00:00 22 15 Norte 27 Norte 0 -- -- 31
2019-08-14 05:00:00 21.9 16 Norte 30 Norte 0 -- -- 36
2019-08-14 04:00:00 22.5 15 Norte 38 Norte 0 -- -- 34
2019-08-14 03:00:00 22.6 23 Norte 39 Norte 0 -- -- 40
2019-08-14 02:00:00 23.5 18 Norte 35 Norte 0 -- -- 33
2019-08-14 01:00:00 24.1 22 Norte 33 Norte 0 -- -- 31
2019-08-14 00:00:00 24.1 13 Norte 25 Noroeste 0 -- -- 24
2019-08-13 23:00:00 25 17 Noroeste 31 Norte 0 -- -- 23
2019-08-13 22:00:00 25.3 13 Noroeste 24 Noroeste 0 -- -- 25
2019-08-13 21:00:00 25.9 8 Noroeste 18 Noroeste 0 -- -- 27
2019-08-13 20:00:00 29 8 Noroeste 22 Noroeste 0 -- -- 23
2019-08-13 19:00:00 30.9 9 Norte 18 Norte 0 -- -- 21
2019-08-13 18:00:00 31.3 7 Norte 26 Nordeste 0 -- -- 20
2019-08-13 17:00:00 30.8 8 Oeste 31 Norte 0 -- -- 22
2019-08-13 16:00:00 30.4 5 Oeste 17 Norte 0 -- -- 22
2019-08-13 15:00:00 29.3 5 Sudeste 19 Noroeste 0 -- -- 22
2019-08-13 14:00:00 27.9 5 Norte 19 Nordeste 0 -- -- 25
2019-08-13 13:00:00 26.5 12 Norte 26 Norte 0 -- -- 32
2019-08-13 12:00:00 23.9 14 Norte 29 Norte 0 -- -- 38
2019-08-13 11:00:00 21.9 14 Norte 24 Norte 0 -- -- 42
2019-08-13 10:00:00 19.7 14 Norte 26 Norte 0 -- -- 46
2019-08-13 09:00:00 18 17 Norte 24 Norte 0 -- -- 45
2019-08-13 08:00:00 16.8 16 Nordeste 26 Nordeste 0 -- -- 44
2019-08-13 07:00:00 17.8 13 Norte 25 Norte 0 -- -- 40
2019-08-13 06:00:00 17.8 16 Norte 28 Norte 0 -- -- 41
2019-08-13 05:00:00 18.5 14 Norte 34 Noroeste 0 -- -- 38
2019-08-13 04:00:00 19.6 17 Norte 33 Norte 0 -- -- 35
2019-08-13 03:00:00 19.5 17 Norte 41 Noroeste 0 -- -- 35
2019-08-13 02:00:00 19.9 19 Norte 39 Norte 0 -- -- 33
2019-08-13 01:00:00 20.5 13 Norte 33 Norte 0 -- -- 31
2019-08-13 00:00:00 21.4 16 Norte 34 Norte 0 -- -- 29
2019-08-12 23:00:00 22.3 16 Norte 30 Noroeste 0 -- -- 28
2019-08-12 22:00:00 22.9 13 Norte 28 Norte 0 -- -- 27
2019-08-12 21:00:00 23.5 12 Norte 29 Norte 0 -- -- 27
2019-08-12 20:00:00 24.5 12 Norte 30 Norte 0 -- -- 27
2019-08-12 19:00:00 26.6 14 Norte 31 Norte 0 -- -- 24
2019-08-12 18:00:00 27.1 18 Norte 39 Norte 0 -- -- 24
2019-08-12 17:00:00 26.8 18 Norte 36 Norte 0 -- -- 24
2019-08-12 16:00:00 26.4 19 Norte 39 Nordeste 0 -- -- 26
2019-08-12 15:00:00 25.2 16 Norte 35 Norte 0 -- -- 29
2019-08-12 14:00:00 23.8 16 Norte 38 Norte 0 -- -- 33
2019-08-12 13:00:00 22 23 Norte 39 Norte 0 -- -- 37
2019-08-12 12:00:00 20.4 16 Norte 36 Norte 0 -- -- 46
2019-08-12 11:00:00 18.4 15 Norte 38 Norte 0 -- -- 52
2019-08-12 10:00:00 16.4 11 Nordeste 40 Norte 0 -- -- 57
2019-08-12 09:00:00 15.3 12 Norte 49 Norte 0 -- -- 58
2019-08-12 08:00:00 14.9 27 Noroeste 56 Noroeste 0 -- -- 58
2019-08-12 07:00:00 14.7 30 Noroeste 53 Norte 0 -- -- 60
2019-08-12 06:00:00 14.2 17 Norte 39 Noroeste 0 -- -- 68
2019-08-12 05:00:00 14.5 24 Norte 45 Norte 0 -- -- 65
2019-08-12 04:00:00 14.8 22 Noroeste 47 Norte 0 -- -- 65
2019-08-12 03:00:00 15.6 22 Noroeste 46 Noroeste 0 -- -- 62
2019-08-12 02:00:00 16 26 Noroeste 53 Noroeste 0 -- -- 60
2019-08-12 01:00:00 16.6 24 Noroeste 44 Norte 0 -- -- 57
2019-08-12 00:00:00 17.3 25 Noroeste 48 Noroeste 0 -- -- 53
2019-08-11 23:00:00 18.1 21 Noroeste 35 Norte 0 -- -- 51
2019-08-11 22:00:00 19.3 21 Noroeste 34 Norte 0 -- -- 45
2019-08-11 21:00:00 20.5 8 Noroeste 33 Noroeste 0 -- -- 41
2019-08-11 20:00:00 23 13 Noroeste 31 Norte 0 -- -- 35
2019-08-11 19:00:00 24.9 17 Noroeste 34 Norte 0 -- -- 31
2019-08-11 18:00:00 25.7 18 Noroeste 37 Norte 0 -- -- 30
2019-08-11 17:00:00 26.1 18 Noroeste 38 Noroeste 0 -- -- 31
2019-08-11 16:00:00 25.8 19 Noroeste 34 Noroeste 0 -- -- 30
2019-08-11 15:00:00 24.2 12 Noroeste 31 Noroeste 0 -- -- 36
2019-08-11 14:00:00 22.6 16 Noroeste 28 Noroeste 0 -- -- 37
2019-08-11 13:00:00 22.5 14 Norte 31 Norte 0 -- -- 34
2019-08-11 12:00:00 20.2 14 Norte 37 Norte 0 -- -- 48
2019-08-11 11:00:00 18.9 19 Norte 36 Norte 0 -- -- 56
2019-08-11 10:00:00 19.4 13 Norte 26 Nordeste 0 -- -- 56
2019-08-11 09:00:00 17.8 15 Norte 36 Norte 0 -- -- 62
2019-08-11 08:00:00 16.4 16 Noroeste 33 Norte 0 -- -- 66
2019-08-11 07:00:00 16.5 11 Norte 30 Norte 0 -- -- 67
2019-08-11 06:00:00 16.8 15 Norte 33 Norte 0 -- -- 68
2019-08-11 05:00:00 17.4 3 Este 21 Sudoeste 0 -- -- 64
2019-08-11 04:00:00 18.8 17 Norte 42 Noroeste 0 -- -- 57
2019-08-11 03:00:00 19.7 17 Norte 29 Norte 0 -- -- 55
2019-08-11 02:00:00 20.6 13 Norte 39 Norte 0 -- -- 54
2019-08-11 01:00:00 21.2 19 Norte 43 Norte 0 -- -- 54
2019-08-11 00:00:00 22 21 Norte 32 Norte 0 -- -- 50
2019-08-10 23:00:00 22.6 14 Norte 30 Norte 0 -- -- 47
2019-08-10 22:00:00 22.7 9 Norte 17 Norte 0 -- -- 47
2019-08-10 21:00:00 24.3 11 Noroeste 15 Noroeste 0 -- -- 42
2019-08-10 20:00:00 27.6 6 Oeste 17 Noroeste 0 -- -- 35
2019-08-10 19:00:00 29.1 7 Oeste 19 Oeste 0 -- -- 30
2019-08-10 18:00:00 29.8 8 Oeste 20 Oeste 0 -- -- 30
2019-08-10 17:00:00 28.3 6 Sur 20 Sudoeste 0 -- -- 32
2019-08-10 16:00:00 28.1 10 Sudoeste 19 Sudoeste 0 -- -- 34
2019-08-10 15:00:00 26.5 6 Sur 19 Sudeste 0 -- -- 42
2019-08-10 14:00:00 25.4 5 Norte 20 Norte 0 -- -- 44
2019-08-10 13:00:00 23.7 6 Norte 19 Norte 0 -- -- 50
2019-08-10 12:00:00 22.3 10 Norte 23 Nordeste 0 -- -- 56
2019-08-10 11:00:00 20 14 Norte 32 Norte 0 -- -- 64
2019-08-10 10:00:00 18.7 16 Norte 39 Norte 0 -- -- 69
2019-08-10 09:00:00 17.3 18 Norte 34 Nordeste 0 -- -- 73
2019-08-10 08:00:00 15.9 11 Norte 39 Norte 0 -- -- 76
2019-08-10 07:00:00 16.4 18 Norte 32 Norte 0 -- -- 76
2019-08-10 06:00:00 16.6 14 Norte 36 Norte 0 -- -- 73
2019-08-10 05:00:00 16.5 14 Norte 30 Norte 0 -- -- 74
2019-08-10 04:00:00 16.6 14 Norte 36 Norte 0 -- -- 75
2019-08-10 03:00:00 16.1 10 Norte 23 Norte 0 -- -- 81
2019-08-10 02:00:00 16.4 10 Norte 21 Norte 0 -- -- 82
2019-08-10 01:00:00 15.7 4 Norte 10 Nordeste 0 -- -- 88
2019-08-10 00:00:00 16.5 0 Calma 14 Noroeste 0 -- -- 89
2019-08-09 23:00:00 15.8 5 Noroeste 9 Noroeste 0 -- -- 93
2019-08-09 22:00:00 17 3 Nordeste 5 Norte 0 -- -- 90
2019-08-09 21:00:00 18.7 0 Calma 6 Este 0 -- -- 86
2019-08-09 20:00:00 19.6 2 Este 9 Este 0 -- -- 81
2019-08-09 19:00:00 18.9 4 Este 13 Sudeste 0 -- -- 85
2019-08-09 18:00:00 19.2 6 Este 17 Sudeste 0 -- -- 84
2019-08-09 17:00:00 18.2 4 Sur 12 Sudoeste 1 -- -- 87
2019-08-09 16:00:00 18.3 10 Oeste 30 Oeste 1.8 -- -- 82
2019-08-09 15:00:00 20.2 10 Sudoeste 30 Sudoeste 0.4 -- -- 81
2019-08-09 14:00:00 21.4 13 Oeste 26 Oeste 0 -- -- 80
2019-08-09 13:00:00 21.3 10 Sudoeste 22 Sudoeste 0 -- -- 85
2019-08-09 12:00:00 20.1 10 Oeste 23 Oeste 1.2 -- -- 91
2019-08-09 11:00:00 19.9 12 Sudoeste 30 Oeste 1.4 -- -- 90
2019-08-09 10:00:00 20.2 11 Sur 23 Sur 0 -- -- 94
2019-08-09 09:00:00 20.1 14 Sur 25 Sur 0 -- -- 94
2019-08-09 08:00:00 20.2 12 Sur 27 Sur 0.2 -- -- 92
2019-08-09 07:00:00 19.9 12 Sur 19 Sur 0 -- -- 92
2019-08-09 06:00:00 20.1 9 Sudoeste 21 Sudoeste 0 -- -- 89
2019-08-09 05:00:00 20.5 12 Sudoeste 24 Sur 0 -- -- 85
2019-08-09 04:00:00 20.5 11 Sudoeste 26 Oeste 0 -- -- 83
2019-08-09 03:00:00 20.5 11 Oeste 21 Oeste 0 -- -- 81
2019-08-09 02:00:00 21.2 14 Oeste 29 Noroeste 0 -- -- 77
2019-08-09 01:00:00 22.1 12 Oeste 23 Oeste 0 -- -- 71
2019-08-09 00:00:00 22.9 14 Oeste 26 Noroeste 0 -- -- 68
2019-08-08 23:00:00 24 12 Oeste 24 Oeste 0 -- -- 64
2019-08-08 22:00:00 25.2 7 Oeste 21 Sudoeste 0 -- -- 57
2019-08-08 21:00:00 26.4 10 Sudoeste 31 Oeste 0 -- -- 52
2019-08-08 20:00:00 27.9 12 Sudoeste 36 Oeste -- -- -- 51
2019-08-08 19:00:00 29.1 14 Sudoeste 35 Oeste 0 -- -- 47
2019-08-08 18:00:00 29.3 15 Sudoeste 32 Oeste 0 -- -- 49
2019-08-08 17:00:00 29 18 Sudoeste 30 Oeste 0 -- -- 50
2019-08-08 16:00:00 28.2 13 Sudoeste 29 Sudoeste 0 -- -- 54
2019-08-08 15:00:00 28.2 14 Sudoeste 31 Sudoeste 0 -- -- 52
2019-08-08 14:00:00 26 9 Oeste 20 Sur 0 -- -- 63
2019-08-08 13:00:00 24.2 12 Sur 21 Sur 0 -- -- 67
2019-08-08 12:00:00 23.8 11 Sur 19 Sudeste 0 -- -- 67
2019-08-08 11:00:00 22.8 6 Sudeste 14 Sudeste 0 -- -- 65
2019-08-08 10:00:00 21 2 Noroeste 6 Sudeste 0 -- -- 71
2019-08-08 09:00:00 20.1 3 Sudeste 5 Sudeste 0 -- -- 77
2019-08-08 08:00:00 19.6 3 Noroeste 5 Noroeste 0 -- -- 78
2019-08-08 07:00:00 19.6 3 Este 8 Este 0 -- -- 71
2019-08-08 06:00:00 20 3 Sur 10 Oeste 0 -- -- 69
2019-08-08 05:00:00 20.8 4 Oeste 12 Sudoeste 0 -- -- 68
2019-08-08 04:00:00 20.4 5 Sudoeste 9 Sudoeste 0 -- -- 69
2019-08-08 03:00:00 19.3 4 Oeste 6 Oeste 0 -- -- 71
2019-08-08 02:00:00 19.9 3 Oeste 8 Sudoeste 0 -- -- 68
2019-08-08 01:00:00 20.5 6 Oeste 10 Sudoeste 0 -- -- 64
2019-08-08 00:00:00 20.9 7 Sudoeste 12 Sudoeste 0 -- -- 62
2019-08-07 23:00:00 20.8 5 Oeste 12 Sudoeste 0 -- -- 63
2019-08-07 22:00:00 23.2 8 Sudoeste 17 Sudoeste 0 -- -- 56
2019-08-07 21:00:00 24.2 8 Sur 16 Sudoeste 0 -- -- 53
2019-08-07 20:00:00 24.6 6 Sur 19 Sur 0 -- -- 55
2019-08-07 19:00:00 25.5 10 Sur 18 Sudoeste 0 -- -- 54
2019-08-07 18:00:00 25.2 11 Sur 22 Sudeste 0 -- -- 55
2019-08-07 17:00:00 24.2 10 Sur 22 Sur 0 -- -- 57
2019-08-07 16:00:00 24.2 12 Sur 19 Sur 0 -- -- 56
2019-08-07 15:00:00 24.1 6 Sur 16 Sudoeste 0 -- -- 56
2019-08-07 14:00:00 22 9 Sur 15 Sur 0 -- -- 71
2019-08-07 13:00:00 22.5 8 Sudoeste 13 Sur 0 -- -- 59
2019-08-07 12:00:00 22.4 6 Sudoeste 16 Sudoeste 0 -- -- 58
2019-08-07 11:00:00 22.5 4 Sudeste 6 Sudeste 0 -- -- 61
2019-08-07 10:00:00 22 0 Calma 13 Norte 0 -- -- 61
2019-08-07 09:00:00 20.6 4 Norte 20 Nordeste 0 -- -- 67
2019-08-07 08:00:00 20.3 12 Norte 21 Norte 0 -- -- 68
2019-08-07 07:00:00 20.7 10 Norte 17 Norte 0 -- -- 63
2019-08-07 06:00:00 21.2 8 Norte 13 Norte 0 -- -- 59
2019-08-07 05:00:00 21.8 2 Sudeste 15 Norte 0 -- -- 60
2019-08-07 04:00:00 22.6 4 Norte 10 Norte 0 -- -- 57
2019-08-07 03:00:00 23.7 6 Oeste 27 Norte 0 -- -- 47
2019-08-07 02:00:00 23.8 13 Norte 22 Norte 0 -- -- 50
2019-08-07 01:00:00 24 7 Noroeste 31 Norte 0 -- -- 51
2019-08-07 00:00:00 24.3 9 Norte 27 Norte 0 -- -- 55
2019-08-06 23:00:00 24.4 14 Norte 29 Norte 0 -- -- 57
2019-08-06 22:00:00 26 14 Norte 23 Noroeste 0 -- -- 51
2019-08-06 21:00:00 28.6 12 Oeste 22 Oeste 0 -- -- 40
2019-08-06 20:00:00 30.6 11 Sudoeste 21 Sudoeste 0 -- -- 36
2019-08-06 19:00:00 31.6 9 Sudoeste 22 Sudoeste 0 -- -- 31
2019-08-06 18:00:00 32.3 14 Oeste 27 Sur 0 -- -- 30
2019-08-06 17:00:00 33 9 Sudoeste 27 Sudeste 0 -- -- 30
2019-08-06 16:00:00 32.1 5 Sur 27 Sur 0 -- -- 33
2019-08-06 15:00:00 31.6 9 Sur 23 Sur 0 -- -- 32
2019-08-06 14:00:00 30.6 13 Sur 24 Sudeste 0 -- -- 36
2019-08-06 13:00:00 29.5 14 Sur 23 Sudeste 0 -- -- 38
2019-08-06 12:00:00 28.2 11 Sudeste 18 Sudeste 0 -- -- 42
2019-08-06 11:00:00 26.8 6 Sur 13 Sudeste 0 -- -- 43
2019-08-06 10:00:00 25.5 5 Sudeste 8 Sudeste 0 -- -- 48
2019-08-06 09:00:00 23.3 4 Norte 8 Norte 0 -- -- 55
2019-08-06 08:00:00 22.1 3 Norte 31 Noroeste 0 -- -- 53
2019-08-06 07:00:00 22.2 19 Norte 33 Norte 0 -- -- 52
2019-08-06 06:00:00 21.4 13 Norte 27 Noroeste 0 -- -- 54
2019-08-06 05:00:00 22 14 Norte 25 Norte 0 -- -- 51
2019-08-06 04:00:00 22.1 15 Norte 31 Norte 0 -- -- 52
2019-08-06 03:00:00 22.5 13 Norte 29 Norte 0 -- -- 52
2019-08-06 02:00:00 23 17 Norte 33 Norte 0 -- -- 54
2019-08-06 01:00:00 24.1 18 Norte 28 Norte 0 -- -- 52
2019-08-06 00:00:00 25.9 14 Norte 27 Norte 0 -- -- 46
2019-08-05 23:00:00 27.7 12 Norte 26 Norte 0 -- -- 40
2019-08-05 22:00:00 28.5 11 Norte 19 Nordeste 0 -- -- 36
2019-08-05 21:00:00 30 13 Norte 19 Norte 0 -- -- 31
2019-08-05 20:00:00 32.5 6 Sur 22 Sur 0 -- -- 25
2019-08-05 19:00:00 33.5 10 Sur 22 Sur 0 -- -- 23
2019-08-05 18:00:00 33.5 12 Sur 24 Sudeste 0 -- -- 23
2019-08-05 17:00:00 33.6 12 Sur 25 Sudeste 0 -- -- 25
2019-08-05 16:00:00 33.2 10 Sur 24 Sur 0 -- -- 23
2019-08-05 15:00:00 31.7 11 Sur 21 Sur 0 -- -- 30
2019-08-05 14:00:00 30.6 10 Sur 22 Sudeste 0 -- -- 38
2019-08-05 13:00:00 30.2 7 Sur 18 Sudeste 0 -- -- 37
2019-08-05 12:00:00 28.2 4 Norte 15 Norte 0 -- -- 44
2019-08-05 11:00:00 25.5 12 Norte 29 Norte 0 -- -- 52
2019-08-05 10:00:00 23.1 17 Norte 33 Norte 0 -- -- 58
2019-08-05 09:00:00 21.5 17 Norte 30 Norte 0 -- -- 62
2019-08-05 08:00:00 20.1 14 Norte 23 Norte 0 -- -- 65
2019-08-05 07:00:00 20.3 14 Norte 24 Norte 0 -- -- 64
2019-08-05 06:00:00 21.2 13 Norte 28 Norte 0 -- -- 61
2019-08-05 05:00:00 21.8 17 Norte 30 Norte 0 -- -- 58
2019-08-05 04:00:00 22.1 18 Norte 29 Norte 0 -- -- 54
2019-08-05 03:00:00 22.6 17 Norte 31 Norte 0 -- -- 56
2019-08-05 02:00:00 22.6 15 Norte 28 Norte 0 -- -- 57
2019-08-05 01:00:00 22.9 16 Norte 33 Norte 0 -- -- 58
2019-08-05 00:00:00 24.4 14 Norte 30 Norte 0 -- -- 51
2019-08-04 23:00:00 25.1 3 Nordeste 25 Noroeste 0 -- -- 44
2019-08-04 22:00:00 27.2 14 Oeste 23 Oeste 0 -- -- 36
2019-08-04 21:00:00 29.7 10 Oeste 22 Oeste 0 -- -- 31
2019-08-04 20:00:00 32.2 9 Oeste 19 Oeste 0 -- -- 27
2019-08-04 19:00:00 33.7 11 Sudoeste 24 Oeste 0 -- -- 19
2019-08-04 18:00:00 34.2 13 Sudoeste 26 Sudoeste 0 -- -- 22
2019-08-04 17:00:00 33.7 13 Sur 33 Sur 0 -- -- 23
2019-08-04 16:00:00 33.1 14 Sur 30 Sur 0 -- -- 28
2019-08-04 15:00:00 32.4 10 Sur 26 Sur 0 -- -- 30
2019-08-04 14:00:00 31.3 11 Sur 25 Sudeste 0 -- -- 34
2019-08-04 13:00:00 30.3 14 Sur 22 Sur 0 -- -- 36
2019-08-04 12:00:00 29.1 8 Sudeste 18 Nordeste 0 -- -- 42
2019-08-04 11:00:00 27.3 10 Norte 23 Norte 0 -- -- 48
2019-08-04 10:00:00 24.9 14 Norte 30 Norte 0 -- -- 52
2019-08-04 09:00:00 24.1 12 Noroeste 27 Norte 0 -- -- 55
2019-08-04 08:00:00 22.9 15 Norte 27 Norte 0 -- -- 57
2019-08-04 07:00:00 22.5 17 Norte 32 Norte 0 -- -- 57
2019-08-04 06:00:00 22.6 19 Norte 38 Norte 0 -- -- 56
2019-08-04 05:00:00 23.3 19 Norte 33 Norte 0 -- -- 54
2019-08-04 04:00:00 24 18 Norte 42 Norte 0 -- -- 49
2019-08-04 03:00:00 23.1 16 Norte 29 Norte 0 -- -- 51
2019-08-04 02:00:00 23.3 17 Norte 28 Norte 0 -- -- 52
2019-08-04 01:00:00 24.2 17 Norte 34 Norte 0 -- -- 49
2019-08-04 00:00:00 25.8 14 Norte 28 Noroeste 0 -- -- 43
2019-08-03 23:00:00 26.9 15 Norte 28 Norte 0 -- -- 43
2019-08-03 22:00:00 28.7 12 Norte 26 Norte 0 -- -- 41
2019-08-03 21:00:00 29.6 5 Noroeste 15 Sudeste 0 -- -- 28
2019-08-03 20:00:00 33 9 Sur 20 Sudeste 0 -- -- 23
2019-08-03 19:00:00 34.2 8 Sur 22 Sudeste 0 -- -- 21
2019-08-03 18:00:00 34.3 10 Sur 20 Sur 0 -- -- 21
2019-08-03 17:00:00 34.4 8 Sur 23 Sudeste 0 -- -- 22
2019-08-03 16:00:00 33.9 13 Sudeste 25 Sur 0 -- -- 25
2019-08-03 15:00:00 33.4 9 Sur 21 Sudeste 0 -- -- 26
2019-08-03 14:00:00 32 10 Sudeste 20 Sudeste 0 -- -- 32
2019-08-03 13:00:00 30.4 10 Sudeste 21 Sudeste 0 -- -- 36
2019-08-03 12:00:00 29.3 9 Sudeste 17 Sudeste 0 -- -- 40
2019-08-03 11:00:00 28.9 5 Este 18 Norte 0 -- -- 40
2019-08-03 10:00:00 26.3 12 Norte 23 Norte 0 -- -- 49
2019-08-03 09:00:00 24.1 13 Norte 25 Norte 0 -- -- 53
2019-08-03 08:00:00 22.7 2 Nordeste 21 Norte 0 -- -- 51
2019-08-03 07:00:00 24.4 12 Norte 27 Norte 0 -- -- 46
2019-08-03 06:00:00 24.6 14 Norte 33 Norte 0 -- -- 45
2019-08-03 05:00:00 24.8 17 Norte 36 Norte 0 -- -- 49
2019-08-03 04:00:00 25.4 21 Norte 37 Norte 0 -- -- 48
2019-08-03 03:00:00 25.4 19 Norte 39 Norte 0 -- -- 51
2019-08-03 02:00:00 26.1 20 Norte 40 Norte 0 -- -- 50
2019-08-03 01:00:00 27.2 22 Norte 34 Noroeste 0 -- -- 44
2019-08-03 00:00:00 27.2 10 Norte 23 Norte 0 -- -- 42
2019-08-02 23:00:00 24.9 6 Norte 13 Norte 0 -- -- 36
2019-08-02 22:00:00 24.7 5 Norte 6 Norte 0 -- -- 36
2019-08-02 21:00:00 28.1 4 Norte 15 Sur 0 -- -- 36
2019-08-02 20:00:00 32.6 10 Sur 17 Sudeste -- -- -- 25
2019-08-02 19:00:00 33.8 10 Sur 17 Sur 0 -- -- 24
2019-08-02 18:00:00 34.1 8 Sudeste 18 Sudeste 0 -- -- 25
2019-08-02 17:00:00 33.9 9 Sur 28 Sudeste 0 -- -- 24
2019-08-02 16:00:00 32.8 10 Sur 22 Sudeste 0 -- -- 25
2019-08-02 15:00:00 32 12 Sudeste 23 Sudeste 0 -- -- 27
2019-08-02 14:00:00 31 9 Sudeste 22 Sudeste 0 -- -- 31
2019-08-02 13:00:00 29.9 9 Sudeste 20 Sudeste 0 -- -- 35
2019-08-02 12:00:00 28.8 5 Sudeste 22 Norte 0 -- -- 36
2019-08-02 11:00:00 25.7 14 Norte 28 Norte 0 -- -- 43
2019-08-02 10:00:00 23.9 16 Norte 31 Norte 0 -- -- 46
2019-08-02 09:00:00 22.6 17 Norte 35 Norte 0 -- -- 47
2019-08-02 08:00:00 21.9 18 Norte 35 Noroeste 0 -- -- 48
2019-08-02 07:00:00 21.9 15 Norte 32 Noroeste 0 -- -- 48
2019-08-02 06:00:00 22.3 19 Norte 36 Norte 0 -- -- 46
2019-08-02 05:00:00 23.1 18 Norte 33 Norte 0 -- -- 44
2019-08-02 04:00:00 22.7 17 Norte 32 Norte 0 -- -- 41
2019-08-02 03:00:00 22.6 18 Norte 35 Norte 0 -- -- 42
2019-08-02 02:00:00 22.5 19 Norte 34 Norte 0 -- -- 44
2019-08-02 01:00:00 23.2 19 Norte 34 Norte 0 -- -- 39
2019-08-02 00:00:00 23.6 13 Norte 24 Norte 0 -- -- 37
2019-08-01 23:00:00 24.7 11 Norte 19 Norte 0 -- -- 35
2019-08-01 22:00:00 26.1 7 Norte 26 Oeste 0 -- -- 34
2019-08-01 21:00:00 28.9 17 Oeste 29 Oeste 0 -- -- 26
2019-08-01 20:00:00 32.2 7 Noroeste 24 Oeste 0 -- -- 24
2019-08-01 19:00:00 33.9 10 Oeste 22 Sudoeste 0 -- -- 21
2019-08-01 18:00:00 34.9 9 Noroeste 24 Sudoeste 0 -- -- 19
2019-08-01 17:00:00 33.4 7 Sur 28 Sudoeste 0 -- -- 23
2019-08-01 16:00:00 33.7 9 Oeste 24 Sudoeste 0 -- -- 23
2019-08-01 15:00:00 32.5 13 Sudoeste 25 Sur 0 -- -- 24
2019-08-01 14:00:00 31 12 Sudeste 21 Sudeste 0 -- -- 31
2019-08-01 13:00:00 30.3 6 Este 18 Nordeste 0 -- -- 29
2019-08-01 12:00:00 28.9 8 Norte 15 Norte 0 -- -- 32
2019-08-01 11:00:00 27.1 7 Norte 19 Norte 0 -- -- 36
2019-08-01 10:00:00 24 11 Norte 28 Norte 0 -- -- 45
2019-08-01 09:00:00 22.1 14 Norte 30 Norte 0 -- -- 48
2019-08-01 08:00:00 22.1 13 Norte 24 Norte 0 -- -- 43
2019-08-01 07:00:00 22.3 13 Noroeste 36 Norte 0 -- -- 40
2019-08-01 06:00:00 23.3 20 Norte 35 Norte 0 -- -- 37
2019-08-01 05:00:00 24.2 13 Norte 31 Norte 0 -- -- 34
2019-08-01 04:00:00 24.3 17 Norte 32 Norte 0 -- -- 34
2019-08-01 03:00:00 24.5 20 Norte 36 Noroeste 0 -- -- 34
2019-08-01 02:00:00 24.8 17 Noroeste 32 Noroeste 0 -- -- 34
2019-08-01 01:00:00 25.6 19 Norte 38 Norte 0 -- -- 34
2019-08-01 00:00:00 26 21 Norte 53 Norte 0 -- -- 35
2019-07-31 23:00:00 26.2 19 Noroeste 40 Norte 0 -- -- 35
2019-07-31 22:00:00 26.5 19 Norte 42 Noroeste 0 -- -- 36
2019-07-31 21:00:00 27.5 18 Norte 33 Noroeste 0 -- -- 35
2019-07-31 20:00:00 30.2 10 Norte 23 Norte 0 -- -- 30
2019-07-31 19:00:00 32.1 5 Noroeste 14 Sudeste 0 -- -- 19
2019-07-31 18:00:00 31.7 4 Este 18 Sudeste 0 -- -- 19
2019-07-31 17:00:00 31.7 5 Sur 24 Sudeste 0 -- -- 23
2019-07-31 16:00:00 31.8 10 Sudeste 22 Sur 0 -- -- 27
2019-07-31 15:00:00 31.4 10 Sur 20 Sur 0 -- -- 27
2019-07-31 14:00:00 29.8 10 Sudeste 22 Sur 0 -- -- 32
2019-07-31 13:00:00 27.8 11 Norte 28 Norte 0 -- -- 35
2019-07-31 12:00:00 25.3 14 Norte 33 Norte 0 -- -- 39
2019-07-31 11:00:00 23 14 Norte 29 Norte 0 -- -- 42
2019-07-31 10:00:00 20.7 18 Norte 31 Norte 0 -- -- 44
2019-07-31 09:00:00 19.2 15 Norte 32 Norte 0 -- -- 43
2019-07-31 08:00:00 19.8 15 Norte 26 Norte 0 -- -- 38
2019-07-31 07:00:00 18.8 12 Norte 29 Norte 0 -- -- 40
2019-07-31 06:00:00 19.2 17 Norte 35 Norte 0 -- -- 40
2019-07-31 05:00:00 20.1 19 Norte 47 Noroeste 0 -- -- 38
2019-07-31 04:00:00 20.4 28 Norte 48 Noroeste 0 -- -- 38
2019-07-31 03:00:00 20.9 24 Norte 51 Noroeste 0 -- -- 37
2019-07-31 02:00:00 22 29 Norte 51 Noroeste 0 -- -- 35
2019-07-31 01:00:00 22.4 27 Norte 50 Norte 0 -- -- 32
2019-07-31 00:00:00 23 18 Norte 41 Norte 0 -- -- 30
2019-07-30 23:00:00 23.3 13 Norte 30 Noroeste 0 -- -- 27
2019-07-30 22:00:00 24.3 12 Norte 26 Norte 0 -- -- 25
2019-07-30 21:00:00 25.3 12 Norte 25 Norte 0 -- -- 24
2019-07-30 20:00:00 27.3 14 Norte 30 Nordeste 0 -- -- 22
2019-07-30 19:00:00 28.6 17 Norte 33 Norte 0 -- -- 22
2019-07-30 18:00:00 29 18 Norte 39 Norte 0 -- -- 21
2019-07-30 17:00:00 28.7 21 Norte 38 Norte 0 -- -- 22
2019-07-30 16:00:00 28.3 16 Norte 36 Nordeste 0 -- -- 23
2019-07-30 15:00:00 27.1 16 Norte 36 Norte 0 -- -- 26
2019-07-30 14:00:00 25.3 20 Norte 37 Norte 0 -- -- 30
2019-07-30 13:00:00 23.3 16 Norte 37 Norte 0 -- -- 37
2019-07-30 12:00:00 20.9 18 Norte 37 Nordeste 0 -- -- 42
2019-07-30 11:00:00 18 21 Norte 49 Norte 0 -- -- 53
2019-07-30 10:00:00 16.8 30 Noroeste 66 Norte 0 -- -- 52
2019-07-30 09:00:00 15.5 34 Norte 64 Norte 0 -- -- 53
2019-07-30 08:00:00 14.6 30 Norte 57 Norte 0 -- -- 57
2019-07-30 07:00:00 14.7 33 Norte 67 Noroeste 0 -- -- 55
2019-07-30 06:00:00 14.4 41 Noroeste 68 Noroeste 0 -- -- 62
2019-07-30 05:00:00 14.7 30 Noroeste 61 Noroeste 0 -- -- 60
2019-07-30 04:00:00 15.4 32 Norte 60 Norte 0 -- -- 58
2019-07-30 03:00:00 16.7 30 Norte 58 Norte 0 -- -- 53
2019-07-30 02:00:00 17 35 Noroeste 59 Norte 0 -- -- 56
2019-07-30 01:00:00 18.2 27 Norte 49 Norte 0 -- -- 51
2019-07-30 00:00:00 19.1 24 Noroeste 49 Noroeste 0 -- -- 46
2019-07-29 23:00:00 19.7 30 Noroeste 50 Noroeste 0 -- -- 45
2019-07-29 22:00:00 21 20 Norte 36 Norte 0 -- -- 40
2019-07-29 21:00:00 22.6 15 Noroeste 26 Noroeste 0 -- -- 39
2019-07-29 20:00:00 25.3 16 Noroeste 31 Noroeste 0 -- -- 32
2019-07-29 19:00:00 27.7 17 Noroeste 29 Noroeste 0 -- -- 29
2019-07-29 18:00:00 28.6 14 Noroeste 28 Noroeste 0 -- -- 27
2019-07-29 17:00:00 28.9 14 Noroeste 33 Noroeste 0 -- -- 29
2019-07-29 16:00:00 29.1 13 Noroeste 27 Noroeste 0 -- -- 27
2019-07-29 15:00:00 27.9 15 Norte 33 Norte 0 -- -- 34
2019-07-29 14:00:00 26.8 9 Oeste 27 Oeste 0 -- -- 42
2019-07-29 13:00:00 25.1 13 Norte 32 Norte 0 -- -- 49
2019-07-29 12:00:00 23.6 16 Norte 33 Nordeste 0 -- -- 53
2019-07-29 11:00:00 22.4 14 Norte 36 Norte 0 -- -- 57
2019-07-29 10:00:00 21.1 13 Norte 34 Nordeste 0 -- -- 61
2019-07-29 09:00:00 19.2 15 Norte 32 Norte 0 -- -- 66
2019-07-29 08:00:00 17.8 16 Norte 36 Norte 0 -- -- 67
2019-07-29 07:00:00 17.8 19 Norte 41 Norte 0 -- -- 68
2019-07-29 06:00:00 17.7 19 Norte 35 Norte 0 -- -- 51
2019-07-29 05:00:00 18 20 Norte 44 Norte 0 -- -- 48
2019-07-29 04:00:00 18.9 21 Norte 43 Norte 0 -- -- 51
2019-07-29 03:00:00 20.6 19 Norte 35 Noroeste 0 -- -- 51
2019-07-29 02:00:00 20.8 8 Norte 17 Norte 0 -- -- 52
2019-07-29 01:00:00 21.1 8 Norte 18 Norte 0 -- -- 52
2019-07-29 00:00:00 22.5 2 Nordeste 18 Noroeste 0 -- -- 46
2019-07-28 23:00:00 24.2 13 Noroeste 21 Sudoeste 0 -- -- 41
2019-07-28 22:00:00 25.6 11 Oeste 18 Oeste 0 -- -- 41
2019-07-28 21:00:00 26.5 8 Noroeste 14 Oeste 0 -- -- 36
2019-07-28 20:00:00 29.8 8 Oeste 21 Sudeste 0 -- -- 27
2019-07-28 19:00:00 30.6 9 Sur 28 Sudeste 0 -- -- 29
2019-07-28 18:00:00 31.5 5 Noroeste 26 Noroeste 0 -- -- 28
2019-07-28 17:00:00 30.7 12 Norte 31 Noroeste 0 -- -- 32
2019-07-28 16:00:00 29.4 14 Sudeste 26 Sudeste 0 -- -- 33
2019-07-28 15:00:00 28.8 11 Sudeste 23 Sudeste 0 -- -- 37
2019-07-28 14:00:00 28 11 Sur 23 Sudeste 0 -- -- 39
2019-07-28 13:00:00 26.5 7 Sudeste 18 Sudeste 0 -- -- 43
2019-07-28 12:00:00 25 5 Sur 16 Sudeste 0 -- -- 46
2019-07-28 11:00:00 23.9 6 Sudeste 19 Sudeste 0 -- -- 48
2019-07-28 10:00:00 23.1 4 Sur 9 Sudeste 0 -- -- 49
2019-07-28 09:00:00 20.2 4 Este 15 Nordeste 0 -- -- 60
2019-07-28 08:00:00 17.1 4 Norte 11 Norte 0 -- -- 66
2019-07-28 07:00:00 18 8 Norte 27 Norte 0 -- -- 63
2019-07-28 06:00:00 18.6 16 Norte 32 Norte 0 -- -- 63
2019-07-28 05:00:00 19.3 16 Norte 40 Norte 0 -- -- 61
2019-07-28 04:00:00 19.7 21 Noroeste 40 Norte 0 -- -- 58
2019-07-28 03:00:00 19.8 22 Norte 43 Noroeste 0 -- -- 59
2019-07-28 02:00:00 20.3 20 Norte 38 Norte 0 -- -- 59
2019-07-28 01:00:00 20.6 21 Noroeste 40 Noroeste 0 -- -- 63
2019-07-28 00:00:00 21.3 22 Noroeste 37 Noroeste 0 -- -- 60
2019-07-27 23:00:00 21.7 21 Noroeste 37 Norte 0 -- -- 57
2019-07-26 12:00:00 -- -- -- -- -- -- -- -- --
2019-07-26 11:00:00 21.1 15 Norte 44 Norte 0 -- -- 50
2019-07-26 10:00:00 19 22 Norte 52 Noroeste 0 -- -- 54
2019-07-26 09:00:00 17.5 24 Norte 50 Norte 0 -- -- 55
2019-07-26 08:00:00 16.4 27 Norte 53 Norte 0 -- -- 59
2019-07-26 07:00:00 16.7 29 Norte 48 Norte 0 -- -- 63
2019-07-26 06:00:00 18.2 12 Norte 29 Noroeste 0 -- -- 64
2019-07-26 05:00:00 18 15 Norte 30 Norte 0 -- -- 73
2019-07-26 04:00:00 18.9 20 Norte 51 Norte 0 -- -- 72
2019-07-26 03:00:00 19.7 11 Norte 29 Norte 0 -- -- 72
2019-07-26 02:00:00 19.7 17 Norte 33 Nordeste 0 -- -- 75
2019-07-26 01:00:00 21.3 12 Norte 24 Noroeste 0 -- -- 71
2019-07-26 00:00:00 23.3 3 Sur 21 Noroeste 0 -- -- 60
2019-07-25 23:00:00 24.1 5 Noroeste 36 Oeste 0 -- -- 57
2019-07-25 22:00:00 25.3 22 Oeste 36 Oeste 0 -- -- 51
2019-07-25 21:00:00 26.7 18 Oeste 31 Oeste 0 -- -- 47
2019-07-25 20:00:00 29.4 9 Sudoeste 22 Sur 0 -- -- 35
2019-07-25 19:00:00 30 12 Sur 30 Sudoeste 0 -- -- 36
2019-07-25 18:00:00 31.3 13 Sudoeste 28 Sudoeste 0 -- -- 33
2019-07-25 17:00:00 31.6 14 Sur 31 Sur 0 -- -- 26
2019-07-25 16:00:00 31.6 15 Sudoeste 34 Sur 0 -- -- 26
2019-07-25 15:00:00 30.9 17 Sudoeste 32 Sur 0 -- -- 29
2019-07-25 14:00:00 30.3 14 Sudoeste 36 Sudeste 0 -- -- 33
2019-07-25 13:00:00 29.5 10 Sudoeste 24 Sudeste 0 -- -- 39
2019-07-25 12:00:00 28.2 10 Sur 18 Sur 0 -- -- 42
2019-07-25 11:00:00 26 8 Sur 14 Sudeste 0 -- -- 43
2019-07-25 10:00:00 24.5 4 Sudeste 8 Este 0 -- -- 46
2019-07-25 09:00:00 22.1 4 Sudeste 9 Este 0 -- -- 51
2019-07-25 08:00:00 18.2 3 Noroeste 6 Norte 0 -- -- 59
2019-07-25 07:00:00 18.1 5 Norte 6 Noroeste 0 -- -- 56
2019-07-25 06:00:00 19.1 4 Norte 6 Norte 0 -- -- 55
2019-07-25 05:00:00 19.8 5 Norte 8 Oeste 0 -- -- 51
2019-07-25 04:00:00 22.1 4 Nordeste 9 Oeste 0 -- -- 46
2019-07-25 03:00:00 26.3 8 Oeste 27 Oeste 0 -- -- 32
2019-07-25 02:00:00 26.9 19 Noroeste 34 Noroeste 0 -- -- 35
2019-07-25 01:00:00 27.5 14 Oeste 32 Oeste 0 -- -- 33
2019-07-25 00:00:00 27.9 18 Oeste 40 Oeste 0 -- -- 33
2019-07-24 23:00:00 28.4 23 Oeste 37 Oeste 0 -- -- 35
2019-07-24 22:00:00 29.7 19 Oeste 30 Oeste 0 -- -- 34
2019-07-24 21:00:00 31.9 10 Oeste 27 Sudoeste 0 -- -- 29
2019-07-24 20:00:00 34.2 7 Sudoeste 26 Sudoeste 0 -- -- 26
2019-07-24 19:00:00 35.2 12 Sudoeste 27 Sur 0 -- -- 25
2019-07-24 18:00:00 35.1 14 Sur 30 Sur 0 -- -- 27
2019-07-24 17:00:00 34.4 18 Sur 30 Sudeste 0 -- -- 28
2019-07-24 16:00:00 34.7 15 Sur 30 Sudoeste 0 -- -- 29
2019-07-24 15:00:00 34 15 Sur 33 Sudeste 0 -- -- 31
2019-07-24 14:00:00 33.2 8 Sur 22 Sudeste 0 -- -- 31
2019-07-24 13:00:00 31.8 6 Sudeste 17 Sudeste 0 -- -- 33
2019-07-24 12:00:00 30.7 6 Este 19 Sudeste 0 -- -- 37
2019-07-24 11:00:00 29.2 4 Este 12 Sudeste 0 -- -- 41
2019-07-24 10:00:00 27.6 6 Nordeste 10 Nordeste 0 -- -- 44
2019-07-24 09:00:00 24.7 6 Nordeste 10 Nordeste 0 -- -- 51
2019-07-24 08:00:00 21.4 5 Norte 8 Nordeste 0 -- -- 60
2019-07-24 07:00:00 20.5 4 Noroeste 8 Este 0 -- -- 62
2019-07-24 06:00:00 21.7 3 Norte 8 Norte 0 -- -- 60
2019-07-24 05:00:00 22.1 6 Norte 10 Noroeste 0 -- -- 58
2019-07-24 04:00:00 23.6 6 Norte 9 Norte 0 -- -- 53
2019-07-24 03:00:00 25.3 4 Este 18 Norte 0 -- -- 51
2019-07-24 02:00:00 25.4 13 Norte 29 Norte 0 -- -- 55
2019-07-24 01:00:00 26.1 11 Norte 33 Norte 0 -- -- 52
2019-07-24 00:00:00 28.1 17 Norte 39 Norte 0 -- -- 47
2019-07-23 23:00:00 28.2 21 Noroeste 40 Noroeste 0 -- -- 47
2019-07-23 22:00:00 29.1 14 Norte 29 Norte 0 -- -- 47
2019-07-23 21:00:00 31 13 Oeste 19 Oeste 0 -- -- 36
2019-07-23 20:00:00 32.6 5 Oeste 19 Sudoeste 0 -- -- 35
2019-07-23 19:00:00 34.6 14 Sur 22 Sudeste 0 -- -- 29
2019-07-23 18:00:00 34.6 10 Sur 29 Sudeste 0 -- -- 32
2019-07-23 17:00:00 34.8 9 Sudoeste 31 Sudeste 0 -- -- 32
2019-07-23 16:00:00 33.8 16 Sudeste 28 Sudeste 0 -- -- 34
2019-07-23 15:00:00 32.6 12 Sur 27 Sudeste 0 -- -- 36
2019-07-23 14:00:00 31.3 10 Sudeste 25 Sudeste 0 -- -- 36
2019-07-23 13:00:00 30.4 15 Sudeste 28 Sudeste 0 -- -- 37
2019-07-23 12:00:00 29.8 15 Sudeste 27 Sudeste 0 -- -- 37
2019-07-23 11:00:00 27.9 6 Este 23 Sudeste 0 -- -- 43
2019-07-23 10:00:00 24.9 4 Norte 11 Sudeste 0.2 -- -- 58
2019-07-23 09:00:00 24.3 7 Nordeste 14 Norte 0 -- -- 56
2019-07-23 08:00:00 23.9 8 Nordeste 15 Norte 0 -- -- 55
2019-07-23 07:00:00 23.8 9 Norte 16 Norte 0 -- -- 52
2019-07-23 06:00:00 22.9 9 Norte 24 Norte 0 -- -- 59
2019-07-23 05:00:00 23.1 10 Norte 22 Nordeste 0 -- -- 64
2019-07-23 04:00:00 21.5 6 Norte 22 Norte 1.8 -- -- 81
2019-07-23 03:00:00 27.1 7 Norte 23 Norte 0 -- -- 48
2019-07-23 02:00:00 28 13 Norte 28 Noroeste 0 -- -- 45
2019-07-23 01:00:00 27.6 15 Norte 30 Norte 0 -- -- 46
2019-07-23 00:00:00 26.6 12 Norte 24 Norte 0 -- -- 51
2019-07-22 23:00:00 23.8 5 Noroeste 13 Norte 0 -- -- 77
2019-07-22 22:00:00 27.1 11 Norte 23 Oeste 1.8 -- -- 59
2019-07-22 21:00:00 33.2 5 Norte 7 Norte 0 -- -- 36
2019-07-22 20:00:00 37 3 Noroeste 10 Sudoeste 0 -- -- 26
2019-07-22 19:00:00 37.3 7 Sur 21 Sur 0 -- -- 24
2019-07-22 18:00:00 37.3 8 Sur 22 Sudeste 0 -- -- 24
2019-07-22 17:00:00 37.5 9 Sur 21 Este 0 -- -- 23
2019-07-22 16:00:00 37.4 9 Este 21 Sudeste 0 -- -- 24
2019-07-22 15:00:00 36.1 13 Sudeste 22 Sudeste 0 -- -- 24
2019-07-22 14:00:00 35.2 6 Este 21 Sudeste 0 -- -- 26
2019-07-22 13:00:00 33.5 9 Sudeste 21 Sudeste 0 -- -- 28
2019-07-22 12:00:00 32.1 8 Este 17 Sudeste 0 -- -- 30
2019-07-22 11:00:00 30 4 Nordeste 16 Sudeste 0 -- -- 34
2019-07-22 10:00:00 28.6 12 Sudeste 20 Sudeste 0 -- -- 36
2019-07-22 09:00:00 26.7 2 Nordeste 9 Norte 0 -- -- 42
2019-07-22 08:00:00 25.1 8 Norte 13 Nordeste 0 -- -- 45
2019-07-22 07:00:00 26.1 6 Nordeste 16 Nordeste 0 -- -- 42
2019-07-22 06:00:00 25.6 9 Norte 13 Nordeste 0 -- -- 40
2019-07-22 05:00:00 23.7 3 Noroeste 14 Norte 0 -- -- 42
2019-07-22 04:00:00 28.1 8 Norte 20 Norte 0 -- -- 33
2019-07-22 03:00:00 28.9 14 Norte 27 Norte 0 -- -- 34
2019-07-22 02:00:00 29.4 17 Norte 30 Norte 0 -- -- 34
2019-07-22 01:00:00 30 18 Norte 32 Norte 0 -- -- 33
2019-07-22 00:00:00 30.4 15 Noroeste 27 Noroeste 0 -- -- 31
2019-07-21 23:00:00 25.8 5 Noroeste 9 Norte 0 -- -- 25
2019-07-21 22:00:00 26.3 6 Norte 7 Norte 0 -- -- 28
2019-07-21 21:00:00 29.3 4 Nordeste 11 Oeste 0 -- -- 30
2019-07-21 20:00:00 36.2 5 Sudoeste 15 Sur 0 -- -- 22
2019-07-21 19:00:00 37.4 7 Sur 20 Sur 0 -- -- 19
2019-07-21 18:00:00 37 11 Sur 24 Sudeste 0 -- -- 20
2019-07-21 17:00:00 37.1 7 Oeste 19 Sur 0 -- -- 20
2019-07-21 16:00:00 36.5 10 Sudoeste 23 Sudeste 0 -- -- 22
2019-07-21 15:00:00 35 10 Sur 20 Sudeste 0 -- -- 24
2019-07-21 14:00:00 33.7 8 Sudeste 18 Sudeste 0 -- -- 28
2019-07-21 13:00:00 32.7 6 Sur 20 Este 0 -- -- 32
2019-07-21 12:00:00 30.8 7 Este 18 Sudeste 0 -- -- 35
2019-07-21 11:00:00 29.6 6 Nordeste 24 Norte 0 -- -- 38
2019-07-21 10:00:00 26.7 12 Norte 25 Norte 0 -- -- 49
2019-07-21 09:00:00 24.6 15 Norte 32 Norte 0 -- -- 53
2019-07-21 08:00:00 23.9 17 Norte 33 Norte 0 -- -- 53
2019-07-21 07:00:00 24.3 20 Norte 33 Norte 0 -- -- 50
2019-07-21 06:00:00 24 22 Norte 42 Noroeste 0 -- -- 52
2019-07-21 05:00:00 23.8 26 Norte 46 Norte 0 -- -- 52
2019-07-21 04:00:00 24.5 23 Norte 40 Norte 0 -- -- 49
2019-07-21 03:00:00 24.6 25 Norte 44 Norte 0 -- -- 53
2019-07-21 02:00:00 24.9 27 Norte 48 Norte 0 -- -- 56
2019-07-21 01:00:00 25.4 26 Norte 47 Norte 0 -- -- 54
2019-07-21 00:00:00 27.1 22 Norte 43 Noroeste 0 -- -- 50